createdAt,value
2023-05-04T00:00:07.445Z,31.01
2023-05-04T00:01:07.278Z,30.98
2023-05-04T00:02:07.374Z,30.96
2023-05-04T00:03:07.452Z,30.93
2023-05-04T00:04:07.652Z,30.94
2023-05-04T00:05:07.559Z,30.91
2023-05-04T00:06:07.552Z,30.95
2023-05-04T00:07:07.582Z,30.98
2023-05-04T00:08:07.728Z,30.95
2023-05-04T00:09:07.754Z,30.94
2023-05-04T00:10:08.224Z,30.90
2023-05-04T00:11:07.945Z,30.96
2023-05-04T00:12:07.934Z,30.92
2023-05-04T00:13:07.935Z,30.85
2023-05-04T00:14:07.996Z,30.91
2023-05-04T00:15:08.004Z,30.96
2023-05-04T00:16:10.638Z,30.89
2023-05-04T00:17:08.230Z,30.96
2023-05-04T00:18:08.077Z,30.92
2023-05-04T00:19:08.055Z,30.92
2023-05-04T00:20:08.040Z,30.89
2023-05-04T00:21:08.061Z,30.92
2023-05-04T00:22:08.022Z,30.92
2023-05-04T00:23:08.004Z,30.85
2023-05-04T00:24:08.027Z,30.89
2023-05-04T00:25:08.008Z,30.84
2023-05-04T00:26:07.969Z,30.87
2023-05-04T00:27:07.977Z,30.85
2023-05-04T00:28:08.027Z,30.86
2023-05-04T00:29:07.943Z,30.89
2023-05-04T00:30:07.956Z,30.86
2023-05-04T00:31:07.944Z,30.88
2023-05-04T00:32:07.951Z,30.89
2023-05-04T00:33:07.944Z,30.92
2023-05-04T00:34:07.925Z,30.91
2023-05-04T00:35:07.931Z,30.86
2023-05-04T00:36:08.409Z,30.88
2023-05-04T00:37:07.982Z,30.86
2023-05-04T00:38:07.924Z,30.82
2023-05-04T00:39:07.931Z,30.87
2023-05-04T00:40:08.055Z,30.82
2023-05-04T00:41:07.897Z,30.90
2023-05-04T00:42:07.942Z,30.83
2023-05-04T00:43:07.897Z,30.87
2023-05-04T00:44:07.869Z,30.86
2023-05-04T00:45:07.898Z,30.86
2023-05-04T00:46:07.887Z,30.89
2023-05-04T00:47:07.911Z,30.85
2023-05-04T00:48:07.909Z,30.87
2023-05-04T00:49:07.848Z,30.79
2023-05-04T00:50:08.046Z,30.85
2023-05-04T00:51:07.838Z,30.86
2023-05-04T00:52:07.861Z,30.87
2023-05-04T00:53:07.838Z,30.83
2023-05-04T00:54:07.835Z,30.83
2023-05-04T00:55:07.825Z,30.84
2023-05-04T00:56:07.821Z,30.81
2023-05-04T00:57:07.797Z,30.90
2023-05-04T00:58:07.807Z,30.87
2023-05-04T00:59:07.767Z,30.80
2023-05-04T01:00:07.904Z,30.83
2023-05-04T01:01:07.821Z,30.89
2023-05-04T01:02:07.777Z,30.86
2023-05-04T01:03:07.997Z,30.83
2023-05-04T01:04:08.097Z,30.80
2023-05-04T01:05:07.943Z,30.83
2023-05-04T01:06:07.964Z,30.85
2023-05-04T01:07:08.007Z,30.81
2023-05-04T01:08:08.090Z,30.77
2023-05-04T01:09:08.114Z,30.81
2023-05-04T01:10:08.126Z,30.85
2023-05-04T01:11:08.192Z,30.78
2023-05-04T01:12:08.288Z,30.78
2023-05-04T01:13:08.377Z,30.87
2023-05-04T01:14:08.368Z,30.85
2023-05-04T01:15:08.456Z,30.84
2023-05-04T01:16:08.443Z,30.83
2023-05-04T01:17:08.704Z,30.80
2023-05-04T01:18:08.564Z,30.80
2023-05-04T01:19:08.570Z,30.75
2023-05-04T01:20:08.600Z,30.80
2023-05-04T01:21:08.641Z,30.77
2023-05-04T01:22:08.748Z,30.81
2023-05-04T01:23:08.811Z,30.74
2023-05-04T01:24:08.813Z,30.84
2023-05-04T01:25:08.861Z,30.75
2023-05-04T01:26:08.881Z,30.77
2023-05-04T01:27:09.005Z,30.77
2023-05-04T01:28:08.972Z,30.74
2023-05-04T01:29:09.050Z,30.78
2023-05-04T01:30:09.132Z,30.73
2023-05-04T01:31:09.153Z,30.84
2023-05-04T01:32:09.181Z,30.73
2023-05-04T01:33:09.248Z,30.73
2023-05-04T01:34:09.288Z,30.77
2023-05-04T01:35:09.296Z,30.75
2023-05-04T01:36:09.304Z,30.73
2023-05-04T01:37:09.352Z,30.77
2023-05-04T01:38:09.360Z,30.74
2023-05-04T01:39:09.375Z,30.77
2023-05-04T01:40:09.411Z,30.75
2023-05-04T01:41:09.430Z,30.81
2023-05-04T01:42:09.963Z,30.71
2023-05-04T01:43:09.515Z,30.75
2023-05-04T01:44:09.565Z,30.74
2023-05-04T01:45:09.541Z,30.74
2023-05-04T01:46:09.592Z,30.73
2023-05-04T01:47:09.572Z,30.76
2023-05-04T01:48:09.656Z,30.75
2023-05-04T01:49:09.613Z,30.70
2023-05-04T01:50:09.634Z,30.68
2023-05-04T01:51:09.634Z,30.70
2023-05-04T01:52:09.718Z,30.71
2023-05-04T01:53:09.727Z,30.72
2023-05-04T01:54:09.720Z,30.74
2023-05-04T01:55:09.778Z,30.70
2023-05-04T01:56:09.844Z,30.73
2023-05-04T01:57:09.917Z,30.70
2023-05-04T01:58:09.904Z,30.73
2023-05-04T01:59:09.911Z,30.70
2023-05-04T02:00:09.942Z,30.69
2023-05-04T02:01:10.513Z,30.67
2023-05-04T02:02:10.122Z,30.69
2023-05-04T02:03:10.115Z,30.69
2023-05-04T02:04:10.214Z,30.68
2023-05-04T02:05:10.181Z,30.67
2023-05-04T02:06:10.070Z,30.70
2023-05-04T02:07:10.087Z,30.69
2023-05-04T02:08:10.092Z,30.69
2023-05-04T02:09:10.145Z,30.66
2023-05-04T02:10:10.138Z,30.66
2023-05-04T02:11:10.201Z,30.70
2023-05-04T02:12:10.178Z,30.66
2023-05-04T02:13:10.320Z,30.64
2023-05-04T02:14:10.241Z,30.67
2023-05-04T02:15:10.233Z,30.65
2023-05-04T02:16:10.316Z,30.67
2023-05-04T02:17:10.311Z,30.69
2023-05-04T02:18:10.309Z,30.69
2023-05-04T02:19:10.315Z,30.70
2023-05-04T02:20:10.336Z,30.66
2023-05-04T02:21:10.362Z,30.64
2023-05-04T02:22:10.439Z,30.64
2023-05-04T02:23:10.436Z,30.64
2023-05-04T02:24:10.410Z,30.64
2023-05-04T02:25:10.474Z,30.64
2023-05-04T02:26:10.482Z,30.66
2023-05-04T02:27:10.977Z,30.63
2023-05-04T02:28:10.512Z,30.68
2023-05-04T02:29:10.511Z,30.67
2023-05-04T02:30:10.540Z,30.66
2023-05-04T02:31:10.592Z,30.66
2023-05-04T02:32:10.606Z,30.68
2023-05-04T02:33:10.623Z,30.67
2023-05-04T02:34:10.567Z,30.67
2023-05-04T02:35:10.625Z,30.67
2023-05-04T02:36:10.593Z,30.64
2023-05-04T02:37:10.981Z,30.63
2023-05-04T02:38:10.576Z,30.64
2023-05-04T02:39:10.655Z,30.63
2023-05-04T02:40:10.600Z,30.66
2023-05-04T02:41:10.617Z,30.65
2023-05-04T02:42:10.631Z,30.66
2023-05-04T02:43:10.613Z,30.67
2023-05-04T02:44:10.683Z,30.65
2023-05-04T02:45:10.651Z,30.59
2023-05-04T02:46:10.744Z,30.65
2023-05-04T02:47:11.014Z,30.65
2023-05-04T02:48:10.724Z,30.65
2023-05-04T02:49:10.672Z,30.67
2023-05-04T02:50:10.655Z,30.60
2023-05-04T02:51:10.673Z,30.65
2023-05-04T02:52:10.692Z,30.67
2023-05-04T02:53:10.670Z,30.67
2023-05-04T02:54:10.652Z,30.61
2023-05-04T02:55:11.483Z,30.64
2023-05-04T02:56:10.622Z,30.64
2023-05-04T02:57:11.500Z,30.62
2023-05-04T02:58:10.615Z,30.61
2023-05-04T02:59:10.621Z,30.62
2023-05-04T03:00:10.640Z,30.62
2023-05-04T03:01:10.692Z,30.64
2023-05-04T03:02:11.021Z,30.62
2023-05-04T03:03:10.664Z,30.63
2023-05-04T03:04:10.655Z,30.68
2023-05-04T03:05:10.639Z,30.64
2023-05-04T03:06:10.631Z,30.65
2023-05-04T03:07:10.998Z,30.64
2023-05-04T03:08:10.603Z,30.65
2023-05-04T03:09:10.607Z,30.65
2023-05-04T03:10:10.613Z,30.65
2023-05-04T03:11:10.644Z,30.59
2023-05-04T03:12:10.633Z,30.64
2023-05-04T03:13:10.715Z,30.64
2023-05-04T03:14:10.588Z,30.59
2023-05-04T03:15:10.626Z,30.63
2023-05-04T03:16:10.679Z,30.59
2023-05-04T03:17:10.640Z,30.62
2023-05-04T03:18:10.676Z,30.65
2023-05-04T03:19:10.618Z,30.58
2023-05-04T03:20:10.630Z,30.65
2023-05-04T03:21:10.646Z,30.62
2023-05-04T03:22:11.045Z,30.62
2023-05-04T03:23:10.638Z,30.64
2023-05-04T03:24:10.661Z,30.66
2023-05-04T03:25:10.605Z,30.69
2023-05-04T03:26:10.615Z,30.62
2023-05-04T03:27:10.602Z,30.64
2023-05-04T03:28:10.626Z,30.63
2023-05-04T03:29:10.602Z,30.63
2023-05-04T03:30:10.605Z,30.64
2023-05-04T03:31:10.622Z,30.64
2023-05-04T03:32:10.722Z,30.62
2023-05-04T03:33:10.685Z,30.62
2023-05-04T03:34:10.634Z,30.63
2023-05-04T03:35:10.623Z,30.69
2023-05-04T03:36:10.620Z,30.70
2023-05-04T03:37:11.017Z,30.62
2023-05-04T03:38:10.616Z,30.62
2023-05-04T03:39:10.651Z,30.64
2023-05-04T03:40:10.614Z,30.68
2023-05-04T03:41:10.626Z,30.66
2023-05-04T03:42:10.588Z,30.58
2023-05-04T03:43:10.596Z,30.64
2023-05-04T03:44:10.600Z,30.63
2023-05-04T03:45:10.617Z,30.66
2023-05-04T03:46:10.662Z,30.57
2023-05-04T03:47:10.636Z,30.66
2023-05-04T03:48:10.653Z,30.63
2023-05-04T03:49:10.648Z,30.66
2023-05-04T03:50:10.658Z,30.62
2023-05-04T03:51:10.658Z,30.63
2023-05-04T03:52:11.521Z,30.62
2023-05-04T03:53:10.637Z,30.64
2023-05-04T03:54:10.647Z,30.65
2023-05-04T03:55:10.646Z,30.63
2023-05-04T03:56:10.656Z,30.67
2023-05-04T03:57:11.022Z,30.64
2023-05-04T03:58:10.635Z,30.62
2023-05-04T03:59:10.680Z,30.62
2023-05-04T04:00:10.653Z,30.61
2023-05-04T04:01:10.649Z,30.65
2023-05-04T04:02:11.050Z,30.63
2023-05-04T04:03:10.775Z,30.61
2023-05-04T04:04:10.726Z,30.62
2023-05-04T04:05:10.636Z,30.67
2023-05-04T04:06:10.664Z,30.63
2023-05-04T04:07:10.672Z,30.62
2023-05-04T04:08:10.669Z,30.69
2023-05-04T04:09:10.681Z,30.62
2023-05-04T04:10:10.678Z,30.67
2023-05-04T04:11:10.693Z,30.67
2023-05-04T04:12:10.998Z,30.65
2023-05-04T04:13:10.723Z,30.60
2023-05-04T04:14:10.715Z,30.61
2023-05-04T04:15:10.715Z,30.64
2023-05-04T04:16:10.791Z,30.59
2023-05-04T04:17:11.012Z,30.68
2023-05-04T04:18:10.726Z,30.68
2023-05-04T04:19:10.739Z,30.65
2023-05-04T04:20:10.738Z,30.61
2023-05-04T04:21:10.773Z,30.61
2023-05-04T04:22:10.754Z,30.61
2023-05-04T04:23:10.783Z,30.62
2023-05-04T04:24:10.777Z,30.68
2023-05-04T04:25:10.800Z,30.65
2023-05-04T04:26:10.769Z,30.64
2023-05-04T04:27:11.009Z,30.61
2023-05-04T04:28:10.808Z,30.67
2023-05-04T04:29:10.820Z,30.62
2023-05-04T04:30:10.825Z,30.64
2023-05-04T04:31:10.855Z,30.59
2023-05-04T04:32:11.049Z,30.61
2023-05-04T04:33:10.945Z,30.61
2023-05-04T04:34:10.841Z,30.61
2023-05-04T04:35:10.857Z,30.61
2023-05-04T04:36:10.886Z,30.57
2023-05-04T04:37:10.883Z,30.61
2023-05-04T04:38:10.903Z,30.64
2023-05-04T04:39:11.004Z,30.64
2023-05-04T04:40:10.915Z,30.61
2023-05-04T04:41:10.994Z,30.62
2023-05-04T04:42:11.029Z,30.59
2023-05-04T04:43:10.982Z,30.58
2023-05-04T04:44:10.936Z,30.57
2023-05-04T04:45:10.988Z,30.61
2023-05-04T04:46:10.987Z,30.61
2023-05-04T04:47:10.975Z,30.58
2023-05-04T04:48:11.203Z,30.57
2023-05-04T04:49:11.035Z,30.59
2023-05-04T04:50:11.009Z,30.60
2023-05-04T04:51:11.039Z,30.61
2023-05-04T04:52:12.201Z,31.04
2023-05-04T04:53:11.016Z,30.82
2023-05-04T04:54:11.009Z,30.74
2023-05-04T04:55:11.063Z,30.66
2023-05-04T04:56:11.072Z,30.87
2023-05-04T04:57:11.087Z,31.41
2023-05-04T04:58:11.116Z,31.50
2023-05-04T04:59:11.128Z,31.48
2023-05-04T05:00:11.137Z,31.50
2023-05-04T05:01:11.194Z,31.64
2023-05-04T05:02:11.133Z,31.94
2023-05-04T05:03:11.208Z,33.22
2023-05-04T05:04:11.203Z,32.38
2023-05-04T05:05:11.184Z,34.26
2023-05-04T05:06:11.138Z,33.13
2023-05-04T05:07:11.533Z,33.27
2023-05-04T05:08:11.126Z,34.40
2023-05-04T05:09:11.156Z,35.62
2023-05-04T05:10:11.164Z,34.60
2023-05-04T05:11:11.111Z,35.99
2023-05-04T05:12:11.608Z,36.32
2023-05-04T05:13:11.157Z,35.66
2023-05-04T05:14:11.119Z,36.68
2023-05-04T05:15:11.138Z,40.20
2023-05-04T05:16:11.178Z,39.64
2023-05-04T05:17:11.669Z,38.57
2023-05-04T05:18:11.215Z,37.24
2023-05-04T05:19:11.133Z,36.52
2023-05-04T05:20:11.168Z,36.58
2023-05-04T05:21:11.170Z,36.97
2023-05-04T05:22:11.182Z,37.23
2023-05-04T05:23:11.176Z,37.50
2023-05-04T05:24:11.210Z,36.85
2023-05-04T05:25:11.211Z,36.94
2023-05-04T05:26:11.188Z,36.83
2023-05-04T05:27:11.601Z,36.74
2023-05-04T05:28:11.201Z,36.68
2023-05-04T05:29:11.236Z,36.72
2023-05-04T05:30:11.195Z,36.62
2023-05-04T05:31:11.213Z,36.66
2023-05-04T05:32:11.551Z,36.78
2023-05-04T05:33:11.224Z,36.71
2023-05-04T05:34:11.225Z,36.68
2023-05-04T05:35:11.235Z,36.37
2023-05-04T05:36:11.182Z,36.28
2023-05-04T05:37:11.238Z,36.40
2023-05-04T05:38:11.207Z,36.29
2023-05-04T05:39:11.209Z,36.19
2023-05-04T05:40:11.257Z,36.09
2023-05-04T05:41:11.233Z,36.27
2023-05-04T05:42:11.612Z,36.22
2023-05-04T05:43:11.243Z,35.88
2023-05-04T05:44:13.074Z,35.76
2023-05-04T05:45:11.302Z,35.84
2023-05-04T05:46:11.325Z,35.89
2023-05-04T05:47:11.305Z,37.24
2023-05-04T05:48:11.487Z,36.68
2023-05-04T05:49:11.325Z,35.89
2023-05-04T05:50:11.292Z,36.34
2023-05-04T05:51:11.340Z,36.48
2023-05-04T05:52:11.335Z,37.36
2023-05-04T05:53:11.299Z,36.24
2023-05-04T05:54:11.329Z,36.57
2023-05-04T05:55:11.313Z,35.80
2023-05-04T05:56:11.301Z,36.40
2023-05-04T05:57:11.308Z,35.62
2023-05-04T05:58:12.026Z,35.88
2023-05-04T05:59:11.311Z,35.52
2023-05-04T06:00:11.402Z,35.32
2023-05-04T06:01:11.415Z,35.35
2023-05-04T06:02:11.502Z,35.22
2023-05-04T06:03:11.623Z,35.20
2023-05-04T06:04:11.588Z,35.11
2023-05-04T06:05:11.645Z,35.21
2023-05-04T06:06:11.599Z,35.26
2023-05-04T06:07:11.646Z,35.13
2023-05-04T06:08:11.692Z,35.08
2023-05-04T06:09:11.722Z,35.05
2023-05-04T06:10:11.831Z,35.07
2023-05-04T06:11:11.879Z,35.00
2023-05-04T06:12:11.916Z,34.99
2023-05-04T06:13:12.169Z,35.02
2023-05-04T06:14:12.074Z,34.95
2023-05-04T06:15:12.108Z,35.04
2023-05-04T06:16:12.191Z,35.37
2023-05-04T06:17:12.241Z,35.01
2023-05-04T06:18:12.535Z,35.06
2023-05-04T06:19:12.393Z,35.10
2023-05-04T06:20:12.428Z,35.04
2023-05-04T06:21:12.506Z,35.14
2023-05-04T06:22:12.539Z,35.19
2023-05-04T06:23:13.083Z,35.07
2023-05-04T06:24:12.629Z,35.20
2023-05-04T06:25:12.665Z,35.14
2023-05-04T06:26:12.751Z,34.99
2023-05-04T06:27:12.774Z,35.15
2023-05-04T06:28:13.054Z,35.16
2023-05-04T06:29:12.859Z,35.10
2023-05-04T06:30:12.926Z,35.15
2023-05-04T06:31:12.989Z,35.19
2023-05-04T06:32:13.132Z,35.22
2023-05-04T06:33:13.125Z,35.17
2023-05-04T06:34:13.119Z,35.07
2023-05-04T06:35:13.142Z,35.17
2023-05-04T06:36:13.199Z,35.15
2023-05-04T06:37:14.139Z,35.16
2023-05-04T06:38:13.596Z,35.11
2023-05-04T06:39:13.202Z,35.14
2023-05-04T06:40:13.618Z,35.27
2023-05-04T06:41:13.175Z,35.08
2023-05-04T06:42:13.163Z,35.07
2023-05-04T06:43:13.559Z,35.07
2023-05-04T06:44:13.153Z,35.08
2023-05-04T06:45:13.145Z,35.06
2023-05-04T06:46:13.120Z,35.08
2023-05-04T06:47:13.143Z,35.08
2023-05-04T06:48:13.560Z,34.99
2023-05-04T06:49:13.145Z,35.04
2023-05-04T06:50:13.099Z,35.03
2023-05-04T06:51:13.124Z,35.03
2023-05-04T06:52:13.108Z,35.28
2023-05-04T06:53:13.130Z,35.46
2023-05-04T06:54:13.061Z,35.23
2023-05-04T06:55:13.106Z,35.34
2023-05-04T06:56:13.124Z,35.19
2023-05-04T06:57:13.051Z,35.21
2023-05-04T06:58:13.113Z,35.24
2023-05-04T06:59:13.052Z,35.04
2023-05-04T07:00:13.055Z,35.00
2023-05-04T07:01:13.072Z,34.98
2023-05-04T07:02:13.026Z,34.99
2023-05-04T07:03:13.165Z,35.01
2023-05-04T07:04:13.058Z,35.03
2023-05-04T07:05:13.042Z,34.98
2023-05-04T07:06:13.000Z,35.02
2023-05-04T07:07:12.995Z,35.06
2023-05-04T07:08:13.050Z,35.10
2023-05-04T07:09:12.982Z,35.13
2023-05-04T07:10:12.983Z,35.19
2023-05-04T07:11:12.964Z,35.26
2023-05-04T07:12:12.950Z,35.05
2023-05-04T07:13:13.181Z,35.12
2023-05-04T07:14:12.942Z,35.09
2023-05-04T07:15:12.959Z,35.08
2023-05-04T07:16:12.987Z,35.11
2023-05-04T07:17:12.928Z,35.13
2023-05-04T07:18:13.231Z,35.16
2023-05-04T07:19:13.579Z,35.11
2023-05-04T07:20:12.966Z,35.12
2023-05-04T07:22:12.922Z,35.18
2023-05-04T07:23:13.083Z,35.13
2023-05-04T07:24:12.884Z,35.15
2023-05-04T07:25:12.839Z,35.11
2023-05-04T07:26:12.881Z,35.13
2023-05-04T07:27:12.844Z,35.06
2023-05-04T07:28:12.943Z,35.04
2023-05-04T07:29:12.865Z,35.01
2023-05-04T07:30:12.848Z,35.00
2023-05-04T07:31:12.833Z,35.07
2023-05-04T07:32:12.866Z,35.03
2023-05-04T07:33:12.965Z,35.01
2023-05-04T07:34:12.840Z,35.07
2023-05-04T07:35:12.883Z,35.03
2023-05-04T07:36:12.771Z,35.08
2023-05-04T07:37:12.837Z,35.06
2023-05-04T07:38:12.763Z,35.09
2023-05-04T07:39:12.773Z,34.99
2023-05-04T07:40:12.789Z,35.08
2023-05-04T07:41:12.796Z,35.01
2023-05-04T07:42:12.749Z,35.05
2023-05-04T07:43:13.117Z,35.03
2023-05-04T07:44:12.741Z,35.04
2023-05-04T07:45:12.757Z,35.01
2023-05-04T07:46:12.735Z,35.32
2023-05-04T07:47:12.745Z,35.57
2023-05-04T07:48:13.144Z,35.45
2023-05-04T07:49:12.744Z,35.90
2023-05-04T07:50:12.756Z,35.89
2023-05-04T07:51:12.683Z,35.64
2023-05-04T07:52:12.701Z,35.76
2023-05-04T07:53:13.088Z,35.38
2023-05-04T07:54:12.635Z,35.24
2023-05-04T07:55:12.686Z,35.13
2023-05-04T07:56:12.721Z,35.10
2023-05-04T07:57:12.766Z,35.02
2023-05-04T07:58:13.116Z,35.01
2023-05-04T07:59:12.635Z,34.95
2023-05-04T08:00:12.659Z,34.92
2023-05-04T08:01:12.649Z,34.88
2023-05-04T08:02:12.869Z,34.84
2023-05-04T08:03:13.128Z,34.80
2023-05-04T08:04:12.579Z,34.73
2023-05-04T08:05:12.646Z,34.69
2023-05-04T08:06:12.608Z,34.70
2023-05-04T08:07:12.599Z,34.62
2023-05-04T08:08:13.074Z,34.60
2023-05-04T08:09:12.590Z,34.12
2023-05-04T08:10:12.580Z,34.43
2023-05-04T08:11:19.961Z,34.46
2023-05-04T08:12:13.557Z,34.41
2023-05-04T08:13:13.177Z,34.42
2023-05-04T08:14:12.598Z,34.41
2023-05-04T08:15:12.600Z,34.32
2023-05-04T08:16:12.546Z,34.32
2023-05-04T08:17:12.573Z,34.27
2023-05-04T08:18:13.075Z,34.31
2023-05-04T08:19:12.535Z,34.18
2023-05-04T08:20:12.514Z,34.14
2023-05-04T08:21:12.564Z,34.16
2023-05-04T08:22:12.568Z,34.13
2023-05-04T08:23:12.574Z,34.13
2023-05-04T08:24:12.494Z,34.16
2023-05-04T08:25:12.524Z,34.09
2023-05-04T08:26:12.598Z,34.14
2023-05-04T08:27:12.648Z,34.09
2023-05-04T08:28:13.123Z,34.13
2023-05-04T08:29:12.820Z,34.12
2023-05-04T08:30:12.773Z,34.13
2023-05-04T08:31:12.872Z,34.18
2023-05-04T08:32:12.871Z,34.10
2023-05-04T08:33:12.957Z,34.12
2023-05-04T08:34:13.037Z,34.08
2023-05-04T08:35:13.085Z,34.05
2023-05-04T08:36:13.098Z,34.15
2023-05-04T08:37:13.158Z,34.07
2023-05-04T08:38:13.601Z,34.07
2023-05-04T08:39:13.253Z,34.05
2023-05-04T08:40:13.348Z,34.16
2023-05-04T08:41:13.435Z,34.15
2023-05-04T08:42:13.486Z,34.19
2023-05-04T08:43:13.551Z,34.31
2023-05-04T08:44:13.657Z,34.19
2023-05-04T08:45:13.700Z,34.14
2023-05-04T08:46:13.806Z,34.11
2023-05-04T08:47:13.779Z,34.19
2023-05-04T08:48:13.833Z,34.25
2023-05-04T08:49:13.894Z,34.27
2023-05-04T08:50:13.910Z,34.35
2023-05-04T08:51:13.939Z,34.44
2023-05-04T08:52:13.992Z,34.33
2023-05-04T08:53:14.021Z,34.34
2023-05-04T08:54:14.022Z,34.91
2023-05-04T08:55:14.045Z,34.43
2023-05-04T08:56:14.062Z,34.42
2023-05-04T08:57:14.159Z,34.30
2023-05-04T08:58:14.665Z,34.38
2023-05-04T08:59:14.255Z,34.37
2023-05-04T09:00:14.286Z,34.29
2023-05-04T09:01:14.461Z,34.23
2023-05-04T09:02:14.462Z,34.20
2023-05-04T09:03:14.529Z,34.20
2023-05-04T09:04:14.533Z,34.18
2023-05-04T09:05:14.606Z,34.11
2023-05-04T09:06:14.685Z,34.14
2023-05-04T09:07:14.719Z,34.12
2023-05-04T09:08:14.788Z,34.11
2023-05-04T09:09:14.849Z,34.09
2023-05-04T09:10:14.894Z,34.05
2023-05-04T09:11:14.954Z,34.05
2023-05-04T09:12:15.032Z,34.06
2023-05-04T09:13:15.204Z,33.98
2023-05-04T09:14:15.123Z,33.97
2023-05-04T09:15:15.242Z,33.92
2023-05-04T09:16:15.394Z,33.93
2023-05-04T09:17:15.304Z,33.91
2023-05-04T09:18:15.470Z,33.88
2023-05-04T09:19:15.424Z,33.84
2023-05-04T09:20:15.474Z,33.92
2023-05-04T09:21:15.533Z,33.92
2023-05-04T09:22:15.548Z,33.90
2023-05-04T09:23:15.642Z,33.80
2023-05-04T09:24:15.672Z,33.84
2023-05-04T09:25:15.732Z,33.87
2023-05-04T09:26:15.780Z,33.88
2023-05-04T09:27:15.914Z,33.75
2023-05-04T09:28:15.961Z,33.83
2023-05-04T09:29:15.943Z,33.75
2023-05-04T09:30:16.034Z,33.82
2023-05-04T09:31:16.150Z,33.77
2023-05-04T09:32:16.174Z,33.79
2023-05-04T09:33:16.235Z,33.81
2023-05-04T09:34:16.256Z,33.77
2023-05-04T09:35:29.333Z,33.77
2023-05-04T09:36:17.370Z,33.72
2023-05-04T09:37:16.354Z,33.73
2023-05-04T09:38:16.298Z,33.68
2023-05-04T09:39:16.276Z,33.69
2023-05-04T09:40:16.264Z,33.69
2023-05-04T09:41:16.286Z,33.64
2023-05-04T09:42:16.313Z,33.62
2023-05-04T09:43:16.276Z,33.62
2023-05-04T09:44:16.294Z,33.57
2023-05-04T09:45:16.334Z,33.60
2023-05-04T09:46:16.455Z,33.58
2023-05-04T09:47:16.448Z,33.46
2023-05-04T09:48:16.526Z,33.27
2023-05-04T09:49:16.564Z,33.50
2023-05-04T09:50:19.815Z,33.59
2023-05-04T09:51:16.565Z,33.75
2023-05-04T09:52:16.565Z,33.70
2023-05-04T09:53:16.585Z,33.67
2023-05-04T09:54:16.617Z,33.54
2023-05-04T09:55:16.516Z,33.56
2023-05-04T09:56:16.571Z,33.57
2023-05-04T09:57:16.565Z,33.55
2023-05-04T09:58:16.515Z,33.60
2023-05-04T09:59:16.522Z,33.54
2023-05-04T10:00:16.526Z,33.63
2023-05-04T10:01:16.544Z,33.58
2023-05-04T10:02:22.758Z,33.67
2023-05-04T10:03:17.586Z,33.67
2023-05-04T10:04:16.475Z,33.68
2023-05-04T10:05:16.482Z,33.65
2023-05-04T10:06:16.496Z,33.66
2023-05-04T10:07:16.514Z,33.64
2023-05-04T10:08:16.469Z,33.67
2023-05-04T10:09:16.465Z,33.65
2023-05-04T10:10:16.498Z,33.65
2023-05-04T10:11:16.478Z,33.63
2023-05-04T10:12:16.532Z,33.59
2023-05-04T10:13:16.575Z,33.65
2023-05-04T10:14:16.634Z,33.62
2023-05-04T10:15:16.654Z,33.59
2023-05-04T10:16:16.730Z,33.61
2023-05-04T10:17:16.740Z,33.56
2023-05-04T10:18:16.803Z,33.60
2023-05-04T10:19:16.863Z,33.58
2023-05-04T10:20:16.940Z,33.54
2023-05-04T10:21:16.952Z,33.57
2023-05-04T10:22:17.074Z,33.50
2023-05-04T10:23:17.060Z,33.49
2023-05-04T10:24:17.102Z,33.54
2023-05-04T10:25:17.147Z,33.51
2023-05-04T10:26:17.200Z,33.48
2023-05-04T10:27:17.250Z,33.43
2023-05-04T10:28:17.262Z,33.49
2023-05-04T10:29:17.628Z,33.51
2023-05-04T10:30:17.413Z,33.42
2023-05-04T10:31:17.453Z,33.48
2023-05-04T10:32:17.443Z,33.45
2023-05-04T10:33:17.522Z,33.41
2023-05-04T10:34:17.548Z,33.44
2023-05-04T10:35:17.563Z,33.38
2023-05-04T10:36:17.595Z,33.34
2023-05-04T10:37:17.667Z,33.33
2023-05-04T10:38:17.687Z,33.41
2023-05-04T10:39:18.210Z,33.27
2023-05-04T10:40:17.751Z,33.68
2023-05-04T10:41:17.800Z,33.72
2023-05-04T10:42:17.840Z,33.47
2023-05-04T10:43:17.847Z,33.41
2023-05-04T10:44:17.907Z,33.44
2023-05-04T10:45:17.935Z,33.46
2023-05-04T10:46:18.014Z,33.44
2023-05-04T10:47:18.168Z,33.41
2023-05-04T10:48:18.230Z,33.37
2023-05-04T10:49:18.153Z,33.28
2023-05-04T10:50:18.135Z,33.17
2023-05-04T10:51:18.162Z,33.08
2023-05-04T10:52:18.317Z,33.08
2023-05-04T10:53:18.399Z,32.98
2023-05-04T10:54:18.411Z,32.85
2023-05-04T10:55:18.378Z,32.82
2023-05-04T10:56:18.525Z,32.79
2023-05-04T10:57:18.630Z,32.75
2023-05-04T10:58:18.544Z,32.63
2023-05-04T10:59:18.630Z,32.70
2023-05-04T11:00:18.704Z,32.59
2023-05-04T11:01:18.785Z,32.49
2023-05-04T11:02:18.813Z,32.50
2023-05-04T11:03:19.034Z,32.46
2023-05-04T11:04:18.934Z,32.46
2023-05-04T11:05:19.142Z,32.40
2023-05-04T11:06:23.233Z,32.37
2023-05-04T11:07:19.111Z,32.30
2023-05-04T11:08:19.026Z,32.29
2023-05-04T11:09:19.011Z,32.25
2023-05-04T11:10:19.005Z,32.22
2023-05-04T11:11:18.984Z,32.10
2023-05-04T11:12:19.603Z,32.05
2023-05-04T11:13:19.100Z,32.09
2023-05-04T11:14:19.144Z,32.06
2023-05-04T11:15:19.018Z,31.98
2023-05-04T11:16:18.979Z,31.91
2023-05-04T11:17:28.120Z,31.96
2023-05-04T11:18:20.032Z,31.89
2023-05-04T11:19:18.952Z,31.92
2023-05-04T11:20:18.944Z,31.83
2023-05-04T11:21:18.927Z,31.77
2023-05-04T11:22:18.992Z,31.79
2023-05-04T11:23:18.984Z,31.68
2023-05-04T11:24:18.932Z,31.70
2023-05-04T11:25:18.935Z,31.65
2023-05-04T11:26:19.054Z,31.56
2023-05-04T11:27:18.886Z,31.46
2023-05-04T11:28:18.854Z,31.49
2023-05-04T11:29:18.869Z,31.45
2023-05-04T11:30:18.870Z,31.47
2023-05-04T11:31:18.939Z,31.45
2023-05-04T11:32:18.850Z,31.35
2023-05-04T11:33:18.854Z,31.39
2023-05-04T11:34:19.158Z,31.34
2023-05-04T11:35:18.901Z,31.36
2023-05-04T11:36:18.810Z,31.30
2023-05-04T11:37:18.866Z,31.26
2023-05-04T11:38:18.808Z,31.16
2023-05-04T11:39:19.727Z,31.17
2023-05-04T11:40:18.824Z,31.09
2023-05-04T11:41:18.819Z,31.08
2023-05-04T11:42:18.790Z,31.10
2023-05-04T11:43:18.765Z,31.02
2023-05-04T11:44:18.792Z,31.08
2023-05-04T11:45:18.774Z,30.99
2023-05-04T11:46:18.776Z,30.96
2023-05-04T11:47:18.782Z,30.85
2023-05-04T11:48:18.988Z,30.85
2023-05-04T11:49:18.808Z,30.82
2023-05-04T11:50:18.732Z,30.79
2023-05-04T11:51:18.768Z,30.69
2023-05-04T11:52:18.729Z,30.68
2023-05-04T11:53:18.752Z,30.64
2023-05-04T11:54:18.729Z,30.67
2023-05-04T11:55:18.827Z,30.64
2023-05-04T11:56:18.737Z,30.53
2023-05-04T11:57:18.773Z,30.56
2023-05-04T11:58:18.774Z,30.55
2023-05-04T11:59:18.846Z,30.53
2023-05-04T12:00:18.779Z,30.49
2023-05-04T12:01:18.852Z,30.44
2023-05-04T12:02:19.011Z,30.47
2023-05-04T12:03:19.369Z,30.42
2023-05-04T12:04:18.934Z,30.30
2023-05-04T12:05:18.999Z,30.34
2023-05-04T12:06:18.914Z,30.28
2023-05-04T12:07:18.934Z,30.20
2023-05-04T12:08:19.331Z,30.21
2023-05-04T12:09:19.142Z,30.13
2023-05-04T12:10:19.161Z,30.10
2023-05-04T12:11:19.133Z,30.17
2023-05-04T12:12:19.037Z,30.06
2023-05-04T12:13:19.092Z,30.06
2023-05-04T12:14:19.086Z,29.95
2023-05-04T12:15:19.149Z,29.90
2023-05-04T12:16:19.167Z,29.93
2023-05-04T12:17:19.157Z,29.83
2023-05-04T12:18:19.171Z,29.74
2023-05-04T12:19:19.173Z,29.79
2023-05-04T12:20:19.233Z,29.68
2023-05-04T12:21:19.233Z,29.71
2023-05-04T12:22:19.227Z,29.64
2023-05-04T12:23:19.312Z,29.61
2023-05-04T12:24:19.726Z,29.61
2023-05-04T12:25:19.299Z,29.59
2023-05-04T12:26:19.995Z,29.54
2023-05-04T12:27:19.327Z,29.42
2023-05-04T12:28:19.405Z,29.44
2023-05-04T12:29:19.474Z,29.42
2023-05-04T12:30:19.397Z,29.37
2023-05-04T12:31:19.461Z,29.36
2023-05-04T12:32:19.424Z,29.43
2023-05-04T12:33:19.469Z,29.30
2023-05-04T12:34:19.494Z,29.19
2023-05-04T12:35:19.492Z,29.26
2023-05-04T12:36:19.601Z,29.16
2023-05-04T12:37:19.538Z,29.15
2023-05-04T12:38:19.589Z,29.14
2023-05-04T12:39:19.627Z,29.12
2023-05-04T12:40:28.294Z,28.97
2023-05-04T12:41:20.597Z,29.03
2023-05-04T12:42:19.587Z,28.94
2023-05-04T12:43:20.981Z,28.94
2023-05-04T12:44:19.601Z,28.91
2023-05-04T12:45:19.586Z,28.85
2023-05-04T12:46:19.583Z,28.90
2023-05-04T12:47:19.576Z,28.85
2023-05-04T12:48:19.548Z,28.79
2023-05-04T12:49:19.575Z,28.82
2023-05-04T12:50:19.558Z,28.79
2023-05-04T12:51:19.540Z,28.75
2023-05-04T12:52:19.545Z,28.71
2023-05-04T12:53:19.525Z,28.68